createdAt,value
2023-04-15T00:01:37.310Z,7.23
2023-04-15T00:04:11.085Z,7.30
2023-04-15T00:06:39.560Z,8.03
2023-04-15T00:09:06.440Z,6.87
2023-04-15T00:11:33.777Z,7.10
2023-04-15T00:14:00.782Z,7.10
2023-04-15T00:16:28.323Z,7.40
2023-04-15T00:18:55.524Z,7.80
2023-04-15T00:21:22.381Z,8.43
2023-04-15T00:23:52.683Z,8.40
2023-04-15T00:26:19.723Z,8.23
2023-04-15T00:28:47.032Z,7.53
2023-04-15T00:31:14.263Z,8.43
2023-04-15T00:33:41.192Z,9.13
2023-04-15T00:36:08.689Z,6.93
2023-04-15T00:38:36.649Z,7.70
2023-04-15T00:41:03.919Z,6.93
2023-04-15T00:43:30.712Z,6.67
2023-04-15T00:45:59.609Z,8.17
2023-04-15T00:48:27.875Z,6.70
2023-04-15T00:50:54.842Z,8.20
2023-04-15T00:53:21.662Z,6.97
2023-04-15T00:55:48.671Z,8.13
2023-04-15T00:58:16.682Z,7.70
2023-04-15T01:00:43.595Z,7.00
2023-04-15T01:03:11.647Z,8.17
2023-04-15T01:05:39.258Z,7.10
2023-04-15T01:08:06.461Z,6.87
2023-04-15T01:10:33.790Z,7.37
2023-04-15T01:13:00.792Z,7.27
2023-04-15T01:15:27.627Z,8.50
2023-04-15T01:17:54.801Z,9.30
2023-04-15T01:20:22.128Z,7.27
2023-04-15T01:22:49.496Z,7.50
2023-04-15T01:25:20.364Z,7.83
2023-04-15T01:27:47.584Z,7.87
2023-04-15T01:30:14.440Z,9.10
2023-04-15T01:32:41.683Z,7.17
2023-04-15T01:35:09.137Z,7.33
2023-04-15T01:37:36.841Z,7.00
2023-04-15T01:40:03.932Z,6.70
2023-04-15T01:42:31.373Z,7.40
2023-04-15T01:44:58.153Z,7.70
2023-04-15T01:47:25.012Z,7.40
2023-04-15T01:49:51.910Z,6.80
2023-04-15T01:52:18.738Z,7.67
2023-04-15T01:54:45.758Z,7.13
2023-04-15T01:57:12.844Z,7.60
2023-04-15T01:59:39.638Z,7.13
2023-04-15T02:02:06.638Z,7.50
2023-04-15T02:04:34.163Z,7.87
2023-04-15T02:07:01.726Z,7.67
2023-04-15T02:09:28.638Z,7.30
2023-04-15T02:11:55.457Z,7.43
2023-04-15T02:14:22.327Z,8.20
2023-04-15T02:16:49.217Z,7.83
2023-04-15T02:19:16.139Z,7.83
2023-04-15T02:21:42.939Z,8.43
2023-04-15T02:24:09.805Z,9.53
2023-04-15T02:26:36.605Z,7.37
2023-04-15T02:29:03.787Z,7.70
2023-04-15T02:31:30.720Z,10.40
2023-04-15T02:33:57.612Z,8.17
2023-04-15T02:36:24.420Z,9.73
2023-04-15T02:38:51.436Z,9.33
2023-04-15T02:41:18.685Z,8.37
2023-04-15T02:43:45.636Z,8.43
2023-04-15T02:46:14.731Z,7.87
2023-04-15T02:48:41.864Z,9.17
2023-04-15T02:51:21.315Z,8.27
2023-04-15T02:53:49.013Z,8.27
2023-04-15T02:56:17.246Z,8.83
2023-04-15T02:58:45.572Z,8.73
2023-04-15T03:01:12.707Z,8.80
2023-04-15T03:03:39.577Z,8.60
2023-04-15T03:06:06.906Z,9.40
2023-04-15T03:08:33.741Z,8.33
2023-04-15T03:11:02.412Z,8.63
2023-04-15T03:13:29.287Z,11.27
2023-04-15T03:15:56.132Z,9.90
2023-04-15T03:18:23.515Z,9.57
2023-04-15T03:20:50.596Z,11.57
2023-04-15T03:23:17.472Z,10.07
2023-04-15T03:25:45.333Z,9.40
2023-04-15T03:28:12.693Z,9.97
2023-04-15T03:30:39.511Z,10.27
2023-04-15T03:33:06.958Z,10.90
2023-04-15T03:35:33.978Z,10.10
2023-04-15T03:38:01.047Z,10.77
2023-04-15T03:40:27.889Z,10.50
2023-04-15T03:42:54.730Z,10.30
2023-04-15T03:45:21.549Z,10.40
2023-04-15T03:47:49.627Z,12.07
2023-04-15T03:50:16.744Z,12.50
2023-04-15T03:52:44.516Z,11.73
2023-04-15T03:55:11.425Z,10.37
2023-04-15T03:57:39.283Z,13.57
2023-04-15T04:00:07.895Z,11.37
2023-04-15T04:02:34.959Z,11.50
2023-04-15T04:05:01.843Z,11.87
2023-04-15T04:07:28.978Z,11.37
2023-04-15T04:09:57.982Z,11.60
2023-04-15T04:12:24.806Z,11.57
2023-04-15T04:14:52.043Z,11.40
2023-04-15T04:17:19.017Z,10.70
2023-04-15T04:19:45.847Z,11.43
2023-04-15T04:22:12.666Z,11.50
2023-04-15T04:24:39.474Z,11.17
2023-04-15T04:27:06.449Z,12.03
2023-04-15T04:29:33.313Z,13.50
2023-04-15T04:32:00.185Z,11.63
2023-04-15T04:34:27.024Z,12.53
2023-04-15T04:36:53.928Z,11.80
2023-04-15T04:39:20.745Z,11.33
2023-04-15T04:41:47.596Z,11.53
2023-04-15T04:44:14.436Z,10.53
2023-04-15T04:46:41.231Z,14.73
2023-04-15T04:49:08.044Z,10.90
2023-04-15T04:51:34.887Z,11.23
2023-04-15T04:54:03.711Z,12.57
2023-04-15T04:56:30.769Z,11.07
2023-04-15T04:58:57.618Z,10.30
2023-04-15T05:01:24.468Z,13.03
2023-04-15T05:03:51.756Z,11.37
2023-04-15T05:06:18.702Z,11.03
2023-04-15T05:08:47.080Z,10.57
2023-04-15T05:11:13.919Z,11.33
2023-04-15T05:13:40.817Z,10.27
2023-04-15T05:16:08.362Z,13.10
2023-04-15T05:18:35.456Z,13.03
2023-04-15T05:21:02.871Z,11.27
2023-04-15T05:23:29.807Z,10.27
2023-04-15T05:25:56.593Z,10.80
2023-04-15T05:28:23.484Z,10.37
2023-04-15T05:30:50.482Z,10.87
2023-04-15T05:33:17.564Z,10.17
2023-04-15T05:35:44.395Z,10.00
2023-04-15T05:38:11.415Z,10.70
2023-04-15T05:40:38.275Z,11.47
2023-04-15T05:43:05.145Z,9.80
2023-04-15T05:45:32.109Z,9.80
2023-04-15T05:47:59.013Z,9.40
2023-04-15T05:50:26.259Z,9.73
2023-04-15T05:52:53.075Z,9.00
2023-04-15T05:55:19.904Z,9.60
2023-04-15T05:57:46.948Z,8.50
2023-04-15T06:00:15.296Z,11.33
2023-04-15T06:02:42.588Z,10.73
2023-04-15T06:05:10.826Z,8.43
2023-04-15T06:07:38.812Z,9.07
2023-04-15T06:10:07.232Z,10.10
2023-04-15T06:12:35.279Z,9.37
2023-04-15T06:15:02.467Z,9.97
2023-04-15T06:17:29.385Z,9.40
2023-04-15T06:19:56.406Z,9.40
2023-04-15T06:22:24.284Z,8.20
2023-04-15T06:24:51.558Z,8.53
2023-04-15T06:27:18.659Z,8.20
2023-04-15T06:29:45.542Z,8.00
2023-04-15T06:32:13.068Z,8.13
2023-04-15T06:34:40.262Z,8.20
2023-04-15T06:37:07.183Z,10.57
2023-04-15T06:39:34.064Z,9.17
2023-04-15T06:42:01.511Z,9.00
2023-04-15T06:44:29.329Z,7.40
2023-04-15T06:46:56.621Z,8.90
2023-04-15T06:49:23.504Z,7.37
2023-04-15T06:51:51.387Z,6.70
2023-04-15T06:54:18.366Z,7.20
2023-04-15T06:56:45.622Z,6.93
2023-04-15T06:59:12.862Z,7.43
2023-04-15T07:01:42.716Z,7.57
2023-04-15T07:04:09.613Z,7.60
2023-04-15T07:06:36.795Z,9.33
2023-04-15T07:09:05.405Z,7.00
2023-04-15T07:11:32.664Z,7.23
2023-04-15T07:13:59.442Z,6.37
2023-04-15T07:16:28.640Z,9.10
2023-04-15T07:18:57.175Z,7.57
2023-04-15T07:21:25.647Z,7.10
2023-04-15T07:23:52.552Z,7.67
2023-04-15T07:26:19.376Z,6.73
2023-04-15T07:28:47.372Z,6.97
2023-04-15T07:31:14.971Z,7.70
2023-04-15T07:33:42.001Z,6.73
2023-04-15T07:36:09.311Z,7.87
2023-04-15T07:38:36.164Z,8.63
2023-04-15T07:41:03.417Z,7.00
2023-04-15T07:43:30.283Z,6.87
2023-04-15T07:45:57.097Z,7.53
2023-04-15T07:48:23.954Z,7.93
2023-04-15T07:50:50.831Z,6.80
2023-04-15T07:53:17.625Z,6.67
2023-04-15T07:55:44.467Z,6.20
2023-04-15T07:58:11.573Z,6.77
2023-04-15T08:00:38.588Z,7.97
2023-04-15T08:03:06.006Z,5.87
2023-04-15T08:05:33.121Z,5.90
2023-04-15T08:08:00.027Z,6.53
2023-04-15T08:10:27.284Z,6.17
2023-04-15T08:12:55.027Z,6.03
2023-04-15T08:15:22.301Z,6.27
2023-04-15T08:17:49.176Z,6.03
2023-04-15T08:20:16.376Z,6.23
2023-04-15T08:22:43.263Z,6.73
2023-04-15T08:25:10.406Z,5.80
2023-04-15T08:27:37.502Z,5.97
2023-04-15T08:30:05.354Z,6.00
2023-04-15T08:32:32.444Z,5.20
2023-04-15T08:34:59.343Z,6.03
2023-04-15T08:37:26.910Z,6.33
2023-04-15T08:39:53.750Z,5.70
2023-04-15T08:42:37.442Z,6.93
2023-04-15T08:45:05.815Z,6.67
2023-04-15T08:47:35.011Z,9.20
2023-04-15T08:50:04.414Z,6.13
2023-04-15T08:52:32.235Z,6.07
2023-04-15T08:55:02.511Z,6.93
2023-04-15T08:57:29.976Z,6.03
2023-04-15T08:59:58.026Z,5.30
2023-04-15T09:02:27.330Z,5.90
2023-04-15T09:04:54.515Z,5.20
2023-04-15T09:07:21.442Z,5.20
2023-04-15T09:09:49.017Z,6.30
2023-04-15T09:12:17.277Z,6.37
2023-04-15T09:14:47.224Z,5.27
2023-04-15T09:17:19.171Z,5.00
2023-04-15T09:19:46.022Z,6.73
2023-04-15T09:22:13.391Z,5.07
2023-04-15T09:24:42.201Z,6.30
2023-04-15T09:27:09.417Z,5.03
2023-04-15T09:29:36.983Z,7.03
2023-04-15T09:32:15.165Z,5.37
2023-04-15T09:34:42.351Z,5.27
2023-04-15T09:37:10.889Z,6.80
2023-04-15T09:39:52.515Z,6.60
2023-04-15T09:42:27.025Z,6.60
2023-04-15T09:44:54.026Z,5.60
2023-04-15T09:47:32.268Z,7.43
2023-04-15T09:50:01.242Z,6.07
2023-04-15T09:52:29.102Z,5.73
2023-04-15T09:54:59.103Z,5.53
2023-04-15T09:57:34.360Z,6.83
2023-04-15T10:00:01.150Z,7.53
2023-04-15T10:02:30.060Z,6.07
2023-04-15T10:04:57.986Z,5.90
2023-04-15T10:07:26.387Z,6.73
2023-04-15T10:09:53.639Z,5.87
2023-04-15T10:12:22.203Z,6.67
2023-04-15T10:14:57.170Z,6.13
2023-04-15T10:17:27.198Z,6.33
2023-04-15T10:19:55.589Z,6.90
2023-04-15T10:22:24.722Z,5.90
2023-04-15T10:24:52.621Z,7.13
2023-04-15T10:27:20.591Z,6.33
2023-04-15T10:29:50.314Z,7.90
2023-04-15T10:32:21.213Z,5.47
2023-04-15T10:34:51.421Z,6.23
2023-04-15T10:37:34.716Z,6.03
2023-04-15T10:40:02.891Z,6.27
2023-04-15T10:42:35.376Z,4.90
2023-04-15T10:45:02.427Z,7.30
2023-04-15T10:47:29.242Z,5.70
2023-04-15T10:50:02.296Z,5.53
2023-04-15T10:52:29.681Z,6.47
2023-04-15T10:55:21.240Z,5.87
2023-04-15T10:57:53.910Z,5.33
2023-04-15T11:00:25.830Z,5.40
2023-04-15T11:02:56.523Z,6.20
2023-04-15T11:05:49.468Z,6.97
2023-04-15T11:08:17.121Z,6.77
2023-04-15T11:10:43.885Z,5.07
2023-04-15T11:13:18.027Z,6.40
2023-04-15T11:15:47.221Z,6.83
2023-04-15T11:18:28.077Z,6.00
2023-04-15T11:21:01.176Z,5.87
2023-04-15T11:23:49.578Z,5.43
2023-04-15T11:26:16.635Z,5.10
2023-04-15T11:28:45.809Z,5.13
2023-04-15T11:31:20.946Z,5.50
2023-04-15T11:33:59.565Z,6.30
2023-04-15T11:36:28.820Z,4.93
2023-04-15T11:38:58.169Z,5.20
2023-04-15T11:41:25.329Z,5.57
2023-04-15T11:43:52.777Z,6.80
2023-04-15T11:46:21.391Z,5.53
2023-04-15T11:48:48.354Z,6.43
2023-04-15T11:51:15.377Z,5.07
2023-04-15T11:53:48.590Z,5.60
2023-04-15T11:56:25.644Z,6.20
2023-04-15T11:58:57.040Z,7.03
2023-04-15T12:01:33.582Z,6.03
2023-04-15T12:04:01.534Z,6.17
2023-04-15T12:06:35.042Z,6.03
2023-04-15T12:09:13.470Z,5.73
2023-04-15T12:11:53.824Z,5.43
2023-04-15T12:14:29.045Z,6.00
2023-04-15T12:17:03.384Z,6.30
2023-04-15T12:19:41.918Z,5.57
2023-04-15T12:22:16.981Z,5.47
2023-04-15T12:24:47.880Z,6.67
2023-04-15T12:27:17.000Z,6.20
2023-04-15T12:29:44.196Z,5.13
2023-04-15T12:32:16.186Z,5.90
2023-04-15T12:34:50.315Z,5.73
2023-04-15T12:37:17.706Z,12.97
2023-04-15T12:39:49.346Z,5.57
2023-04-15T12:42:17.788Z,5.90
2023-04-15T12:44:44.792Z,6.53
2023-04-15T12:47:12.585Z,7.73
2023-04-15T12:49:40.103Z,5.53
2023-04-15T12:52:06.940Z,5.77
2023-04-15T12:54:34.549Z,6.60
2023-04-15T12:57:04.664Z,6.03
2023-04-15T12:59:33.520Z,9.10
2023-04-15T13:02:01.177Z,5.90
2023-04-15T13:04:30.786Z,6.33
2023-04-15T13:06:58.029Z,6.37
2023-04-15T13:09:25.077Z,5.97
2023-04-15T13:11:52.737Z,6.93
2023-04-15T13:14:19.768Z,6.17
2023-04-15T13:16:47.167Z,14.27
2023-04-15T13:19:14.254Z,7.13
2023-04-15T13:21:41.488Z,6.23
2023-04-15T13:24:09.443Z,3.90
2023-04-15T13:26:36.441Z,5.73
2023-04-15T13:29:03.305Z,5.23
2023-04-15T13:31:30.481Z,4.53
2023-04-15T13:33:57.874Z,4.00
2023-04-15T13:36:24.890Z,3.93
2023-04-15T13:38:52.034Z,3.17
2023-04-15T13:41:20.015Z,3.10
2023-04-15T13:43:47.337Z,6.17
2023-04-15T13:46:14.679Z,3.93
2023-04-15T13:48:41.892Z,3.87
2023-04-15T13:51:08.747Z,6.97
2023-04-15T13:53:38.999Z,2.90
2023-04-15T13:56:10.257Z,3.03
2023-04-15T13:58:38.164Z,3.43
2023-04-15T14:01:07.064Z,4.77
2023-04-15T14:03:36.389Z,3.57
2023-04-15T14:06:04.878Z,3.40
2023-04-15T14:08:31.787Z,4.33
2023-04-15T14:10:58.714Z,3.37
2023-04-15T14:13:25.870Z,4.00
2023-04-15T14:15:52.977Z,4.77
2023-04-15T14:18:20.868Z,3.70
2023-04-15T14:20:47.751Z,3.30
2023-04-15T14:23:14.632Z,3.40
2023-04-15T14:25:41.602Z,3.93
2023-04-15T14:28:08.412Z,3.83
2023-04-15T14:30:35.451Z,3.70
2023-04-15T14:33:02.526Z,3.60
2023-04-15T14:35:29.649Z,3.80
2023-04-15T14:37:56.966Z,4.10
2023-04-15T14:40:23.861Z,4.77
2023-04-15T14:42:51.837Z,4.33
2023-04-15T14:45:18.730Z,16.93
2023-04-15T14:47:45.779Z,5.27
2023-04-15T14:50:12.710Z,4.47
2023-04-15T14:52:39.636Z,6.20
2023-04-15T14:55:13.534Z,4.43
2023-04-15T14:57:42.589Z,4.53
2023-04-15T15:00:13.181Z,5.03
2023-04-15T15:02:42.262Z,3.87
2023-04-15T15:05:10.946Z,4.67
2023-04-15T15:07:40.707Z,5.97
2023-04-15T15:10:08.347Z,6.13
2023-04-15T15:12:35.500Z,4.37
2023-04-15T15:15:12.283Z,4.83
2023-04-15T15:17:42.999Z,5.00
2023-04-15T15:20:10.438Z,4.73
2023-04-15T15:22:37.241Z,4.90
2023-04-15T15:25:04.643Z,8.47
2023-04-15T15:27:32.089Z,7.00
2023-04-15T15:29:59.276Z,5.97
2023-04-15T15:32:26.118Z,6.93
2023-04-15T15:34:53.319Z,4.53
2023-04-15T15:37:20.342Z,5.53
2023-04-15T15:39:48.391Z,5.40
2023-04-15T15:42:15.381Z,5.43
2023-04-15T15:44:42.330Z,5.43
2023-04-15T15:47:09.182Z,4.80
2023-04-15T15:49:36.041Z,6.10
2023-04-15T15:52:02.917Z,4.60
2023-04-15T15:54:29.821Z,3.67
2023-04-15T15:56:57.525Z,5.13
2023-04-15T15:59:25.604Z,4.17
2023-04-15T16:01:52.651Z,4.63
2023-04-15T16:04:19.764Z,5.20
2023-04-15T16:06:47.120Z,7.57
2023-04-15T16:09:14.080Z,5.27
2023-04-15T16:11:41.547Z,4.67
2023-04-15T16:14:08.384Z,5.03
2023-04-15T16:16:35.348Z,5.73
2023-04-15T16:19:02.529Z,5.07
2023-04-15T16:21:29.588Z,5.03
2023-04-15T16:23:56.615Z,5.03
2023-04-15T16:26:23.843Z,6.20
2023-04-15T16:28:50.734Z,5.20
2023-04-15T16:31:17.547Z,8.37
2023-04-15T16:33:44.339Z,5.77
2023-04-15T16:36:11.270Z,5.97
2023-04-15T16:38:38.275Z,6.37
2023-04-15T16:41:05.382Z,5.53
2023-04-15T16:43:32.234Z,5.60
2023-04-15T16:45:59.166Z,7.00
2023-04-15T16:48:26.362Z,6.17
2023-04-15T16:50:53.187Z,7.13
2023-04-15T16:53:20.097Z,6.23
2023-04-15T16:55:46.961Z,6.23
2023-04-15T16:58:13.824Z,6.80
2023-04-15T17:00:40.692Z,6.17
2023-04-15T17:03:07.767Z,6.03
2023-04-15T17:05:34.988Z,5.87
2023-04-15T17:08:01.967Z,6.13
2023-04-15T17:10:29.137Z,5.83
2023-04-15T17:12:57.702Z,6.30
2023-04-15T17:15:24.948Z,6.20
2023-04-15T17:17:52.572Z,8.30
2023-04-15T17:20:19.800Z,7.07
2023-04-15T17:22:48.458Z,6.70
2023-04-15T17:25:15.464Z,5.87
2023-04-15T17:27:42.433Z,6.57
2023-04-15T17:30:10.148Z,9.13
2023-04-15T17:32:39.344Z,9.13
2023-04-15T17:35:07.061Z,6.70
2023-04-15T17:37:34.460Z,7.30
2023-04-15T17:40:01.392Z,7.23
2023-04-15T17:42:28.632Z,7.23
2023-04-15T17:44:55.613Z,7.90
2023-04-15T17:47:22.441Z,7.47
2023-04-15T17:49:49.296Z,8.43
2023-04-15T17:52:16.259Z,7.90
2023-04-15T17:54:43.122Z,8.37
2023-04-15T17:57:09.938Z,7.50
2023-04-15T17:59:37.060Z,8.07
2023-04-15T18:02:04.075Z,7.60
2023-04-15T18:04:31.227Z,7.53
2023-04-15T18:06:58.187Z,8.27
2023-04-15T18:09:25.247Z,8.97
2023-04-15T18:11:52.068Z,10.00
2023-04-15T18:14:33.073Z,8.30
2023-04-15T18:17:02.418Z,9.07
2023-04-15T18:19:30.784Z,7.57
2023-04-15T18:21:59.786Z,10.07
2023-04-15T18:24:26.668Z,8.50
2023-04-15T18:26:53.984Z,8.30
2023-04-15T18:29:20.833Z,8.33
2023-04-15T18:31:47.806Z,7.30
2023-04-15T18:34:14.667Z,6.87
2023-04-15T18:36:41.671Z,7.23
2023-04-15T18:39:08.744Z,7.60
2023-04-15T18:41:35.752Z,8.03
2023-04-15T18:44:02.589Z,8.43
2023-04-15T18:46:29.489Z,8.60
2023-04-15T18:48:56.444Z,6.97
2023-04-15T18:51:23.430Z,7.37
2023-04-15T18:53:50.430Z,7.60
2023-04-15T18:56:17.354Z,7.97
2023-04-15T18:59:25.980Z,7.20
2023-04-15T19:01:32.527Z,7.60
2023-04-15T19:03:59.650Z,7.40
2023-04-15T19:06:27.151Z,8.43
2023-04-15T19:08:54.467Z,9.27
2023-04-15T19:11:21.670Z,8.20
2023-04-15T19:13:48.588Z,9.07
2023-04-15T19:16:15.481Z,8.37
2023-04-15T19:18:43.080Z,8.63
2023-04-15T19:21:11.942Z,7.93
2023-04-15T19:23:39.576Z,7.60
2023-04-15T19:26:08.228Z,7.53
2023-04-15T19:28:35.250Z,8.17
2023-04-15T19:31:02.113Z,7.30
2023-04-15T19:33:31.432Z,7.17
2023-04-15T19:36:04.087Z,6.23
2023-04-15T19:38:32.166Z,7.20
2023-04-15T19:40:59.263Z,5.67
2023-04-15T19:43:26.145Z,5.83
2023-04-15T19:45:54.777Z,5.90
2023-04-15T19:48:23.070Z,5.87
2023-04-15T19:50:50.172Z,5.50
2023-04-15T19:53:17.055Z,5.03
2023-04-15T19:55:44.096Z,5.53
2023-04-15T19:58:11.266Z,4.97
2023-04-15T20:00:38.562Z,5.17
2023-04-15T20:03:05.797Z,5.10
2023-04-15T20:05:32.765Z,4.60
2023-04-15T20:08:01.459Z,4.73
2023-04-15T20:10:28.512Z,4.70
2023-04-15T20:12:55.570Z,5.83
2023-04-15T20:15:23.875Z,4.67
2023-04-15T20:17:51.321Z,4.33
2023-04-15T20:20:18.445Z,4.83
2023-04-15T20:22:45.440Z,5.17
2023-04-15T20:25:12.401Z,4.30
2023-04-15T20:27:39.424Z,4.77
2023-04-15T20:30:07.348Z,4.23
2023-04-15T20:32:35.924Z,4.40
2023-04-15T20:35:04.729Z,4.03
2023-04-15T20:37:33.451Z,4.23
2023-04-15T20:40:01.557Z,4.40
2023-04-15T20:42:33.267Z,5.30
2023-04-15T20:45:00.454Z,5.13
2023-04-15T20:47:27.431Z,4.00
2023-04-15T20:49:54.548Z,4.60
2023-04-15T20:52:21.819Z,5.70
2023-04-15T20:54:48.762Z,5.63
2023-04-15T20:57:15.796Z,6.83
2023-04-15T20:59:42.795Z,5.13
2023-04-15T21:02:09.830Z,5.33
2023-04-15T21:04:38.374Z,4.57
2023-04-15T21:07:05.575Z,5.07
2023-04-15T21:09:32.439Z,4.87
2023-04-15T21:12:01.738Z,5.53
2023-04-15T21:14:29.284Z,5.27
2023-04-15T21:16:58.365Z,4.87
2023-04-15T21:19:25.336Z,4.70
2023-04-15T21:21:52.761Z,5.10
2023-04-15T21:24:19.637Z,4.60
2023-04-15T21:26:46.468Z,5.10
2023-04-15T21:29:13.838Z,5.00
2023-04-15T21:31:41.001Z,4.83
2023-04-15T21:34:08.334Z,5.43
2023-04-15T21:36:35.709Z,4.70
2023-04-15T21:39:02.620Z,4.83
2023-04-15T21:41:29.785Z,4.80
2023-04-15T21:43:56.773Z,5.33
2023-04-15T21:46:25.535Z,5.07
2023-04-15T21:48:59.567Z,4.90
2023-04-15T21:51:26.961Z,5.63
2023-04-15T21:53:53.881Z,4.87
2023-04-15T21:56:23.169Z,4.70
2023-04-15T21:58:50.089Z,5.00
2023-04-15T22:01:17.483Z,5.53
2023-04-15T22:03:44.520Z,5.77
2023-04-15T22:06:13.553Z,5.00
2023-04-15T22:08:54.968Z,6.60
2023-04-15T22:11:26.965Z,5.57
2023-04-15T22:13:54.643Z,5.23
2023-04-15T22:16:21.619Z,5.50
2023-04-15T22:18:48.560Z,5.20
2023-04-15T22:21:15.525Z,5.40
2023-04-15T22:23:42.460Z,5.03
2023-04-15T22:26:09.339Z,5.20
2023-04-15T22:28:36.194Z,5.97
2023-04-15T22:31:03.079Z,5.93
2023-04-15T22:33:30.040Z,5.80
2023-04-15T22:35:57.109Z,6.53
2023-04-15T22:38:24.871Z,5.90
2023-04-15T22:40:54.435Z,6.27
2023-04-15T22:43:21.317Z,6.47
2023-04-15T22:45:52.915Z,5.80
2023-04-15T22:48:19.932Z,5.60
2023-04-15T22:50:46.922Z,6.33
2023-04-15T22:53:16.313Z,5.70
2023-04-15T22:55:49.440Z,6.07
2023-04-15T22:58:18.232Z,5.40
2023-04-15T23:00:45.392Z,6.00
2023-04-15T23:03:12.463Z,5.50
2023-04-15T23:05:41.310Z,6.03
2023-04-15T23:08:08.251Z,6.33
2023-04-15T23:10:35.475Z,6.37
2023-04-15T23:13:02.370Z,7.10
2023-04-15T23:15:29.171Z,6.97
2023-04-15T23:17:56.124Z,6.50
2023-04-15T23:20:22.996Z,6.40
2023-04-15T23:22:49.872Z,6.90
2023-04-15T23:25:16.756Z,6.87
2023-04-15T23:27:43.614Z,6.23
2023-04-15T23:30:10.663Z,6.70
2023-04-15T23:32:37.614Z,6.30
2023-04-15T23:35:05.137Z,6.73
2023-04-15T23:37:32.013Z,6.07
2023-04-15T23:39:58.892Z,5.97
2023-04-15T23:42:25.942Z,6.50
2023-04-15T23:44:52.936Z,5.73
2023-04-15T23:47:19.792Z,6.00
2023-04-15T23:49:46.696Z,6.30
2023-04-15T23:52:13.574Z,5.93
2023-04-15T23:54:40.520Z,6.03
2023-04-15T23:57:07.350Z,6.47
2023-04-15T23:59:34.191Z,6.57
